sensor_id;sensor_type;location;lat;lon;timestamp;P1;durP1;ratioP1;P2;durP2;ratioP2
26277;SDS011;14000;52.056;8.510;2023-01-19T00:00:06;23.90;;;12.03;;
26277;SDS011;14000;52.056;8.510;2023-01-19T00:02:34;24.67;;;11.93;;
26277;SDS011;14000;52.056;8.510;2023-01-19T00:05:01;25.40;;;12.10;;
26277;SDS011;14000;52.056;8.510;2023-01-19T00:07:28;25.23;;;12.20;;
26277;SDS011;14000;52.056;8.510;2023-01-19T00:09:57;22.80;;;11.70;;
26277;SDS011;14000;52.056;8.510;2023-01-19T00:12:22;28.53;;;12.63;;
26277;SDS011;14000;52.056;8.510;2023-01-19T00:14:49;28.40;;;13.03;;
26277;SDS011;14000;52.056;8.510;2023-01-19T00:17:14;21.33;;;11.40;;
26277;SDS011;14000;52.056;8.510;2023-01-19T00:19:40;24.13;;;12.23;;
26277;SDS011;14000;52.056;8.510;2023-01-19T00:22:08;24.20;;;12.63;;
26277;SDS011;14000;52.056;8.510;2023-01-19T00:24:34;21.37;;;12.23;;
26277;SDS011;14000;52.056;8.510;2023-01-19T00:27:00;24.03;;;11.40;;
26277;SDS011;14000;52.056;8.510;2023-01-19T00:29:27;24.40;;;12.00;;
26277;SDS011;14000;52.056;8.510;2023-01-19T00:31:57;24.37;;;13.00;;
26277;SDS011;14000;52.056;8.510;2023-01-19T00:34:24;25.73;;;12.40;;
26277;SDS011;14000;52.056;8.510;2023-01-19T00:36:49;25.13;;;12.43;;
26277;SDS011;14000;52.056;8.510;2023-01-19T00:39:15;23.20;;;11.77;;
26277;SDS011;14000;52.056;8.510;2023-01-19T00:41:40;22.73;;;11.97;;
26277;SDS011;14000;52.056;8.510;2023-01-19T00:44:25;25.23;;;11.97;;
26277;SDS011;14000;52.056;8.510;2023-01-19T00:46:50;24.40;;;12.30;;
26277;SDS011;14000;52.056;8.510;2023-01-19T00:49:16;28.47;;;12.07;;
26277;SDS011;14000;52.056;8.510;2023-01-19T00:51:42;22.40;;;12.30;;
26277;SDS011;14000;52.056;8.510;2023-01-19T00:54:08;24.27;;;12.47;;
26277;SDS011;14000;52.056;8.510;2023-01-19T00:56:34;29.43;;;13.37;;
26277;SDS011;14000;52.056;8.510;2023-01-19T00:59:00;23.70;;;12.77;;
26277;SDS011;14000;52.056;8.510;2023-01-19T01:01:25;29.33;;;13.43;;
26277;SDS011;14000;52.056;8.510;2023-01-19T01:03:51;26.57;;;12.83;;
26277;SDS011;14000;52.056;8.510;2023-01-19T01:06:17;25.33;;;13.33;;
26277;SDS011;14000;52.056;8.510;2023-01-19T01:08:46;26.17;;;12.40;;
26277;SDS011;14000;52.056;8.510;2023-01-19T01:11:12;25.13;;;13.40;;
26277;SDS011;14000;52.056;8.510;2023-01-19T01:13:38;25.63;;;13.53;;
26277;SDS011;14000;52.056;8.510;2023-01-19T01:16:03;27.13;;;13.27;;
26277;SDS011;14000;52.056;8.510;2023-01-19T01:18:29;25.77;;;13.93;;
26277;SDS011;14000;52.056;8.510;2023-01-19T01:21:01;24.43;;;13.93;;
26277;SDS011;14000;52.056;8.510;2023-01-19T01:23:28;25.60;;;12.73;;
26277;SDS011;14000;52.056;8.510;2023-01-19T01:25:54;23.87;;;13.33;;
26277;SDS011;14000;52.056;8.510;2023-01-19T01:28:20;33.23;;;13.40;;
26277;SDS011;14000;52.056;8.510;2023-01-19T01:30:45;28.53;;;14.37;;
26277;SDS011;14000;52.056;8.510;2023-01-19T01:33:11;28.37;;;14.80;;
26277;SDS011;14000;52.056;8.510;2023-01-19T01:35:37;27.77;;;13.43;;
26277;SDS011;14000;52.056;8.510;2023-01-19T01:38:03;28.03;;;13.50;;
26277;SDS011;14000;52.056;8.510;2023-01-19T01:40:29;27.27;;;14.00;;
26277;SDS011;14000;52.056;8.510;2023-01-19T01:42:54;27.43;;;13.97;;
26277;SDS011;14000;52.056;8.510;2023-01-19T01:45:26;27.57;;;14.17;;
26277;SDS011;14000;52.056;8.510;2023-01-19T01:48:07;27.23;;;14.57;;
26277;SDS011;14000;52.056;8.510;2023-01-19T01:50:39;25.70;;;14.17;;
26277;SDS011;14000;52.056;8.510;2023-01-19T01:53:28;29.47;;;14.80;;
26277;SDS011;14000;52.056;8.510;2023-01-19T01:55:56;25.63;;;14.13;;
26277;SDS011;14000;52.056;8.510;2023-01-19T01:58:23;27.27;;;14.20;;
26277;SDS011;14000;52.056;8.510;2023-01-19T02:00:49;31.73;;;14.90;;
26277;SDS011;14000;52.056;8.510;2023-01-19T02:03:33;28.93;;;14.80;;
26277;SDS011;14000;52.056;8.510;2023-01-19T02:05:59;26.40;;;14.50;;
26277;SDS011;14000;52.056;8.510;2023-01-19T02:08:30;25.40;;;14.63;;
26277;SDS011;14000;52.056;8.510;2023-01-19T02:11:22;28.73;;;14.57;;
26277;SDS011;14000;52.056;8.510;2023-01-19T02:14:06;29.30;;;14.33;;
26277;SDS011;14000;52.056;8.510;2023-01-19T02:16:32;27.97;;;14.57;;
26277;SDS011;14000;52.056;8.510;2023-01-19T02:19:00;23.77;;;13.73;;
26277;SDS011;14000;52.056;8.510;2023-01-19T02:23:57;25.53;;;14.47;;
26277;SDS011;14000;52.056;8.510;2023-01-19T02:26:35;24.63;;;13.70;;
26277;SDS011;14000;52.056;8.510;2023-01-19T02:29:06;24.57;;;14.77;;
26277;SDS011;14000;52.056;8.510;2023-01-19T02:31:34;29.07;;;13.97;;
26277;SDS011;14000;52.056;8.510;2023-01-19T02:34:01;28.90;;;14.43;;
26277;SDS011;14000;52.056;8.510;2023-01-19T02:36:29;27.10;;;14.83;;
26277;SDS011;14000;52.056;8.510;2023-01-19T02:39:06;28.47;;;15.33;;
26277;SDS011;14000;52.056;8.510;2023-01-19T02:41:37;28.27;;;15.40;;
26277;SDS011;14000;52.056;8.510;2023-01-19T02:44:07;27.77;;;14.90;;
26277;SDS011;14000;52.056;8.510;2023-01-19T02:46:34;30.47;;;14.73;;
26277;SDS011;14000;52.056;8.510;2023-01-19T02:49:00;25.80;;;14.20;;
26277;SDS011;14000;52.056;8.510;2023-01-19T02:51:26;29.30;;;15.10;;
26277;SDS011;14000;52.056;8.510;2023-01-19T03:04:42;26.43;;;13.70;;
26277;SDS011;14000;52.056;8.510;2023-01-19T03:10:06;30.53;;;14.77;;
26277;SDS011;14000;52.056;8.510;2023-01-19T03:12:46;25.13;;;13.57;;
26277;SDS011;14000;52.056;8.510;2023-01-19T03:17:44;27.00;;;13.80;;
26277;SDS011;14000;52.056;8.510;2023-01-19T03:20:12;24.73;;;14.07;;
26277;SDS011;14000;52.056;8.510;2023-01-19T03:22:42;27.43;;;14.13;;
26277;SDS011;14000;52.056;8.510;2023-01-19T03:25:09;29.20;;;14.27;;
26277;SDS011;14000;52.056;8.510;2023-01-19T03:27:38;26.17;;;13.30;;
26277;SDS011;14000;52.056;8.510;2023-01-19T03:30:07;25.47;;;14.43;;
26277;SDS011;14000;52.056;8.510;2023-01-19T03:32:50;25.90;;;13.40;;
26277;SDS011;14000;52.056;8.510;2023-01-19T03:35:20;24.97;;;13.80;;
26277;SDS011;14000;52.056;8.510;2023-01-19T03:37:49;22.20;;;12.70;;
26277;SDS011;14000;52.056;8.510;2023-01-19T03:40:18;23.80;;;13.77;;
26277;SDS011;14000;52.056;8.510;2023-01-19T03:42:44;23.50;;;13.53;;
26277;SDS011;14000;52.056;8.510;2023-01-19T03:45:11;29.00;;;13.53;;
26277;SDS011;14000;52.056;8.510;2023-01-19T03:47:38;31.80;;;15.37;;
26277;SDS011;14000;52.056;8.510;2023-01-19T03:50:05;26.13;;;13.67;;
26277;SDS011;14000;52.056;8.510;2023-01-19T03:52:35;25.80;;;12.80;;
26277;SDS011;14000;52.056;8.510;2023-01-19T03:55:01;28.27;;;14.30;;
26277;SDS011;14000;52.056;8.510;2023-01-19T03:57:29;24.80;;;14.23;;
26277;SDS011;14000;52.056;8.510;2023-01-19T03:59:55;29.83;;;15.07;;
26277;SDS011;14000;52.056;8.510;2023-01-19T04:02:21;31.30;;;14.93;;
26277;SDS011;14000;52.056;8.510;2023-01-19T04:04:47;27.90;;;14.43;;
26277;SDS011;14000;52.056;8.510;2023-01-19T04:07:13;26.67;;;13.70;;
26277;SDS011;14000;52.056;8.510;2023-01-19T04:09:39;24.93;;;13.10;;
26277;SDS011;14000;52.056;8.510;2023-01-19T04:12:05;26.67;;;13.87;;
26277;SDS011;14000;52.056;8.510;2023-01-19T04:14:31;32.50;;;15.23;;
26277;SDS011;14000;52.056;8.510;2023-01-19T04:16:57;27.20;;;13.63;;
26277;SDS011;14000;52.056;8.510;2023-01-19T04:19:22;27.27;;;14.57;;
26277;SDS011;14000;52.056;8.510;2023-01-19T04:21:48;28.53;;;14.73;;
26277;SDS011;14000;52.056;8.510;2023-01-19T04:24:15;28.67;;;13.77;;
26277;SDS011;14000;52.056;8.510;2023-01-19T04:26:41;29.33;;;14.20;;
26277;SDS011;14000;52.056;8.510;2023-01-19T04:29:07;24.17;;;13.93;;
26277;SDS011;14000;52.056;8.510;2023-01-19T04:31:33;27.67;;;14.37;;
26277;SDS011;14000;52.056;8.510;2023-01-19T04:33:59;25.23;;;13.70;;
26277;SDS011;14000;52.056;8.510;2023-01-19T04:36:25;26.27;;;14.13;;
26277;SDS011;14000;52.056;8.510;2023-01-19T04:38:52;26.13;;;14.20;;
26277;SDS011;14000;52.056;8.510;2023-01-19T04:41:17;24.10;;;12.47;;
26277;SDS011;14000;52.056;8.510;2023-01-19T04:43:43;31.13;;;13.27;;
26277;SDS011;14000;52.056;8.510;2023-01-19T04:46:09;28.87;;;13.13;;
26277;SDS011;14000;52.056;8.510;2023-01-19T04:48:34;24.37;;;12.70;;
26277;SDS011;14000;52.056;8.510;2023-01-19T04:51:00;24.00;;;12.63;;
26277;SDS011;14000;52.056;8.510;2023-01-19T04:53:25;24.23;;;12.77;;
26277;SDS011;14000;52.056;8.510;2023-01-19T04:55:52;25.37;;;13.10;;
26277;SDS011;14000;52.056;8.510;2023-01-19T04:58:19;21.10;;;11.80;;
26277;SDS011;14000;52.056;8.510;2023-01-19T05:00:45;23.63;;;12.30;;
26277;SDS011;14000;52.056;8.510;2023-01-19T05:03:10;25.07;;;11.93;;
26277;SDS011;14000;52.056;8.510;2023-01-19T05:05:36;23.50;;;11.53;;
26277;SDS011;14000;52.056;8.510;2023-01-19T05:08:02;25.23;;;12.63;;
26277;SDS011;14000;52.056;8.510;2023-01-19T05:10:27;21.03;;;11.10;;
26277;SDS011;14000;52.056;8.510;2023-01-19T05:12:53;23.63;;;12.27;;
26277;SDS011;14000;52.056;8.510;2023-01-19T05:15:19;21.73;;;11.50;;
26277;SDS011;14000;52.056;8.510;2023-01-19T05:17:45;22.60;;;11.17;;
26277;SDS011;14000;52.056;8.510;2023-01-19T05:20:12;25.37;;;11.97;;
26277;SDS011;14000;52.056;8.510;2023-01-19T05:22:38;23.30;;;10.53;;
26277;SDS011;14000;52.056;8.510;2023-01-19T05:25:04;25.47;;;11.80;;
26277;SDS011;14000;52.056;8.510;2023-01-19T05:27:32;21.30;;;10.47;;
26277;SDS011;14000;52.056;8.510;2023-01-19T05:29:58;24.27;;;12.27;;
26277;SDS011;14000;52.056;8.510;2023-01-19T05:32:24;26.40;;;11.13;;
26277;SDS011;14000;52.056;8.510;2023-01-19T05:34:49;27.50;;;10.87;;
26277;SDS011;14000;52.056;8.510;2023-01-19T05:37:15;25.10;;;11.20;;
26277;SDS011;14000;52.056;8.510;2023-01-19T05:39:41;22.27;;;10.67;;
26277;SDS011;14000;52.056;8.510;2023-01-19T05:42:06;21.27;;;10.90;;
26277;SDS011;14000;52.056;8.510;2023-01-19T05:44:32;23.30;;;11.17;;
26277;SDS011;14000;52.056;8.510;2023-01-19T05:46:57;22.27;;;10.67;;
26277;SDS011;14000;52.056;8.510;2023-01-19T05:49:23;24.30;;;11.13;;
26277;SDS011;14000;52.056;8.510;2023-01-19T05:51:49;23.73;;;11.40;;
26277;SDS011;14000;52.056;8.510;2023-01-19T05:54:14;23.13;;;11.20;;
26277;SDS011;14000;52.056;8.510;2023-01-19T05:56:40;25.90;;;11.40;;
26277;SDS011;14000;52.056;8.510;2023-01-19T05:59:06;24.00;;;12.23;;
26277;SDS011;14000;52.056;8.510;2023-01-19T06:01:32;20.57;;;10.77;;
26277;SDS011;14000;52.056;8.510;2023-01-19T06:03:59;23.03;;;11.60;;
26277;SDS011;14000;52.056;8.510;2023-01-19T06:06:25;25.07;;;11.90;;
26277;SDS011;14000;52.056;8.510;2023-01-19T06:08:50;26.83;;;12.53;;
26277;SDS011;14000;52.056;8.510;2023-01-19T06:11:16;25.43;;;12.37;;
26277;SDS011;14000;52.056;8.510;2023-01-19T06:13:41;26.00;;;13.03;;
26277;SDS011;14000;52.056;8.510;2023-01-19T06:16:07;26.47;;;13.07;;
26277;SDS011;14000;52.056;8.510;2023-01-19T06:18:34;25.43;;;13.40;;
26277;SDS011;14000;52.056;8.510;2023-01-19T06:21:04;27.07;;;13.60;;
26277;SDS011;14000;52.056;8.510;2023-01-19T06:23:31;28.80;;;13.93;;
26277;SDS011;14000;52.056;8.510;2023-01-19T06:25:58;26.33;;;13.87;;
26277;SDS011;14000;52.056;8.510;2023-01-19T06:28:24;24.40;;;13.10;;
26277;SDS011;14000;52.056;8.510;2023-01-19T06:30:51;25.37;;;13.90;;
26277;SDS011;14000;52.056;8.510;2023-01-19T06:33:18;29.67;;;15.60;;
26277;SDS011;14000;52.056;8.510;2023-01-19T06:35:44;25.87;;;13.23;;
26277;SDS011;14000;52.056;8.510;2023-01-19T06:38:10;23.93;;;13.17;;
26277;SDS011;14000;52.056;8.510;2023-01-19T06:40:39;22.27;;;13.27;;
26277;SDS011;14000;52.056;8.510;2023-01-19T06:43:05;22.47;;;13.17;;
26277;SDS011;14000;52.056;8.510;2023-01-19T06:45:31;20.77;;;12.67;;
26277;SDS011;14000;52.056;8.510;2023-01-19T06:47:57;25.57;;;13.77;;
26277;SDS011;14000;52.056;8.510;2023-01-19T06:50:23;25.90;;;14.07;;
26277;SDS011;14000;52.056;8.510;2023-01-19T06:52:49;27.40;;;15.00;;
26277;SDS011;14000;52.056;8.510;2023-01-19T06:55:15;22.67;;;11.67;;
26277;SDS011;14000;52.056;8.510;2023-01-19T06:57:41;21.23;;;11.10;;
26277;SDS011;14000;52.056;8.510;2023-01-19T07:00:08;24.00;;;14.03;;
26277;SDS011;14000;52.056;8.510;2023-01-19T07:02:35;24.13;;;14.00;;
26277;SDS011;14000;52.056;8.510;2023-01-19T07:05:06;22.43;;;13.30;;
26277;SDS011;14000;52.056;8.510;2023-01-19T07:07:33;23.70;;;12.80;;
26277;SDS011;14000;52.056;8.510;2023-01-19T07:09:59;21.77;;;11.83;;
26277;SDS011;14000;52.056;8.510;2023-01-19T07:12:24;19.33;;;10.83;;
26277;SDS011;14000;52.056;8.510;2023-01-19T07:14:50;22.83;;;13.17;;
26277;SDS011;14000;52.056;8.510;2023-01-19T07:17:16;22.00;;;12.63;;
26277;SDS011;14000;52.056;8.510;2023-01-19T07:19:42;22.03;;;13.10;;
26277;SDS011;14000;52.056;8.510;2023-01-19T07:22:09;19.27;;;11.73;;
26277;SDS011;14000;52.056;8.510;2023-01-19T07:24:34;21.00;;;11.83;;
26277;SDS011;14000;52.056;8.510;2023-01-19T07:27:01;19.47;;;11.77;;
26277;SDS011;14000;52.056;8.510;2023-01-19T07:29:28;23.30;;;13.03;;
26277;SDS011;14000;52.056;8.510;2023-01-19T07:31:54;20.70;;;12.77;;
26277;SDS011;14000;52.056;8.510;2023-01-19T07:34:19;27.70;;;16.33;;
26277;SDS011;14000;52.056;8.510;2023-01-19T07:36:45;26.03;;;15.60;;
26277;SDS011;14000;52.056;8.510;2023-01-19T07:39:11;23.53;;;14.47;;
26277;SDS011;14000;52.056;8.510;2023-01-19T07:41:37;30.70;;;17.47;;
26277;SDS011;14000;52.056;8.510;2023-01-19T07:44:03;24.97;;;15.03;;
26277;SDS011;14000;52.056;8.510;2023-01-19T07:46:28;29.67;;;17.57;;
26277;SDS011;14000;52.056;8.510;2023-01-19T07:48:54;24.77;;;15.13;;
26277;SDS011;14000;52.056;8.510;2023-01-19T07:51:20;27.90;;;17.03;;
26277;SDS011;14000;52.056;8.510;2023-01-19T07:53:48;27.07;;;16.60;;
26277;SDS011;14000;52.056;8.510;2023-01-19T07:56:14;25.17;;;15.17;;
26277;SDS011;14000;52.056;8.510;2023-01-19T07:58:40;27.27;;;16.13;;
26277;SDS011;14000;52.056;8.510;2023-01-19T08:01:09;32.47;;;19.00;;
26277;SDS011;14000;52.056;8.510;2023-01-19T08:03:36;29.10;;;16.93;;
26277;SDS011;14000;52.056;8.510;2023-01-19T08:06:02;29.17;;;17.87;;
26277;SDS011;14000;52.056;8.510;2023-01-19T08:08:29;30.50;;;17.80;;
26277;SDS011;14000;52.056;8.510;2023-01-19T08:10:58;29.90;;;18.00;;
26277;SDS011;14000;52.056;8.510;2023-01-19T08:13:24;31.93;;;18.13;;
26277;SDS011;14000;52.056;8.510;2023-01-19T08:15:52;27.13;;;17.07;;
26277;SDS011;14000;52.056;8.510;2023-01-19T08:18:18;31.60;;;18.33;;
26277;SDS011;14000;52.056;8.510;2023-01-19T08:20:44;29.47;;;17.37;;
26277;SDS011;14000;52.056;8.510;2023-01-19T08:23:10;31.43;;;18.03;;
26277;SDS011;14000;52.056;8.510;2023-01-19T08:25:40;29.10;;;18.00;;
26277;SDS011;14000;52.056;8.510;2023-01-19T08:28:08;28.97;;;17.63;;
26277;SDS011;14000;52.056;8.510;2023-01-19T08:30:35;30.53;;;18.53;;
26277;SDS011;14000;52.056;8.510;2023-01-19T08:33:02;36.93;;;19.97;;
26277;SDS011;14000;52.056;8.510;2023-01-19T08:35:29;28.23;;;16.47;;
26277;SDS011;14000;52.056;8.510;2023-01-19T08:37:55;34.77;;;19.97;;
26277;SDS011;14000;52.056;8.510;2023-01-19T08:40:25;26.00;;;15.40;;
26277;SDS011;14000;52.056;8.510;2023-01-19T08:42:51;26.70;;;15.83;;
26277;SDS011;14000;52.056;8.510;2023-01-19T08:45:17;31.70;;;18.70;;
26277;SDS011;14000;52.056;8.510;2023-01-19T08:47:43;27.27;;;15.80;;
26277;SDS011;14000;52.056;8.510;2023-01-19T08:50:08;28.30;;;16.23;;
26277;SDS011;14000;52.056;8.510;2023-01-19T08:52:35;24.17;;;14.43;;
26277;SDS011;14000;52.056;8.510;2023-01-19T08:55:00;26.07;;;15.73;;
26277;SDS011;14000;52.056;8.510;2023-01-19T08:57:26;26.90;;;15.67;;
26277;SDS011;14000;52.056;8.510;2023-01-19T08:59:52;31.30;;;17.90;;
26277;SDS011;14000;52.056;8.510;2023-01-19T09:02:17;38.53;;;20.30;;
26277;SDS011;14000;52.056;8.510;2023-01-19T09:04:43;27.30;;;16.97;;
26277;SDS011;14000;52.056;8.510;2023-01-19T09:07:08;26.93;;;15.97;;
26277;SDS011;14000;52.056;8.510;2023-01-19T09:09:34;28.20;;;16.83;;
26277;SDS011;14000;52.056;8.510;2023-01-19T09:12:01;32.40;;;18.63;;
26277;SDS011;14000;52.056;8.510;2023-01-19T09:14:27;27.47;;;16.30;;
26277;SDS011;14000;52.056;8.510;2023-01-19T09:16:53;26.30;;;15.83;;
26277;SDS011;14000;52.056;8.510;2023-01-19T09:19:20;26.67;;;16.03;;
26277;SDS011;14000;52.056;8.510;2023-01-19T09:21:45;24.33;;;15.07;;
26277;SDS011;14000;52.056;8.510;2023-01-19T09:24:11;24.20;;;15.23;;
26277;SDS011;14000;52.056;8.510;2023-01-19T09:26:36;23.03;;;13.60;;
26277;SDS011;14000;52.056;8.510;2023-01-19T09:29:04;24.00;;;14.27;;
26277;SDS011;14000;52.056;8.510;2023-01-19T09:31:30;26.07;;;15.00;;
26277;SDS011;14000;52.056;8.510;2023-01-19T09:33:55;25.70;;;15.23;;
26277;SDS011;14000;52.056;8.510;2023-01-19T09:36:21;20.30;;;12.37;;
26277;SDS011;14000;52.056;8.510;2023-01-19T09:38:46;21.80;;;12.60;;
26277;SDS011;14000;52.056;8.510;2023-01-19T09:41:15;27.60;;;15.37;;
26277;SDS011;14000;52.056;8.510;2023-01-19T09:43:53;21.80;;;12.90;;
26277;SDS011;14000;52.056;8.510;2023-01-19T09:46:43;21.00;;;12.20;;
26277;SDS011;14000;52.056;8.510;2023-01-19T09:49:11;37.07;;;17.37;;
26277;SDS011;14000;52.056;8.510;2023-01-19T09:51:40;26.57;;;14.97;;
26277;SDS011;14000;52.056;8.510;2023-01-19T09:54:52;25.93;;;15.27;;
26277;SDS011;14000;52.056;8.510;2023-01-19T09:57:09;28.77;;;16.27;;
26277;SDS011;14000;52.056;8.510;2023-01-19T09:59:35;35.03;;;18.30;;
26277;SDS011;14000;52.056;8.510;2023-01-19T10:02:21;30.70;;;16.57;;
26277;SDS011;14000;52.056;8.510;2023-01-19T10:05:07;31.93;;;16.10;;
26277;SDS011;14000;52.056;8.510;2023-01-19T10:10:32;31.30;;;17.20;;
26277;SDS011;14000;52.056;8.510;2023-01-19T10:13:17;27.30;;;15.00;;
26277;SDS011;14000;52.056;8.510;2023-01-19T10:18:47;20.67;;;10.63;;
26277;SDS011;14000;52.056;8.510;2023-01-19T10:21:16;16.17;;;9.20;;
26277;SDS011;14000;52.056;8.510;2023-01-19T10:24:13;15.33;;;8.20;;
26277;SDS011;14000;52.056;8.510;2023-01-19T10:27:02;14.33;;;7.60;;
26277;SDS011;14000;52.056;8.510;2023-01-19T10:29:44;17.17;;;7.70;;
26277;SDS011;14000;52.056;8.510;2023-01-19T10:32:24;21.43;;;9.30;;
26277;SDS011;14000;52.056;8.510;2023-01-19T10:34:52;16.70;;;9.27;;
26277;SDS011;14000;52.056;8.510;2023-01-19T10:42:43;22.13;;;11.10;;
26277;SDS011;14000;52.056;8.510;2023-01-19T10:45:19;15.37;;;8.00;;
26277;SDS011;14000;52.056;8.510;2023-01-19T10:47:48;21.13;;;10.20;;
26277;SDS011;14000;52.056;8.510;2023-01-19T10:50:25;21.93;;;10.77;;
26277;SDS011;14000;52.056;8.510;2023-01-19T10:52:53;20.37;;;11.13;;
26277;SDS011;14000;52.056;8.510;2023-01-19T10:57:49;17.00;;;9.07;;
26277;SDS011;14000;52.056;8.510;2023-01-19T11:00:36;14.87;;;7.57;;
26277;SDS011;14000;52.056;8.510;2023-01-19T11:03:27;17.50;;;8.30;;
26277;SDS011;14000;52.056;8.510;2023-01-19T11:05:53;15.93;;;7.73;;
26277;SDS011;14000;52.056;8.510;2023-01-19T11:08:43;14.27;;;7.13;;
26277;SDS011;14000;52.056;8.510;2023-01-19T11:11:11;20.83;;;10.73;;
26277;SDS011;14000;52.056;8.510;2023-01-19T11:13:38;27.30;;;13.40;;
26277;SDS011;14000;52.056;8.510;2023-01-19T11:16:13;23.43;;;12.80;;
26277;SDS011;14000;52.056;8.510;2023-01-19T11:18:49;30.03;;;14.97;;
26277;SDS011;14000;52.056;8.510;2023-01-19T11:21:16;34.10;;;15.87;;
26277;SDS011;14000;52.056;8.510;2023-01-19T11:23:52;31.90;;;15.73;;
26277;SDS011;14000;52.056;8.510;2023-01-19T11:26:33;35.60;;;17.87;;
26277;SDS011;14000;52.056;8.510;2023-01-19T11:29:20;35.17;;;18.07;;
26277;SDS011;14000;52.056;8.510;2023-01-19T11:31:48;34.37;;;18.03;;
26277;SDS011;14000;52.056;8.510;2023-01-19T11:36:58;40.77;;;19.80;;
26277;SDS011;14000;52.056;8.510;2023-01-19T11:39:54;34.63;;;17.73;;
26277;SDS011;14000;52.056;8.510;2023-01-19T11:42:22;34.40;;;17.80;;
26277;SDS011;14000;52.056;8.510;2023-01-19T11:45:03;35.70;;;17.27;;
26277;SDS011;14000;52.056;8.510;2023-01-19T11:47:42;43.60;;;19.10;;
26277;SDS011;14000;52.056;8.510;2023-01-19T11:53:00;40.03;;;17.67;;
26277;SDS011;14000;52.056;8.510;2023-01-19T11:58:32;41.40;;;19.00;;
26277;SDS011;14000;52.056;8.510;2023-01-19T12:03:43;38.20;;;16.87;;
26277;SDS011;14000;52.056;8.510;2023-01-19T12:06:34;38.03;;;17.97;;
26277;SDS011;14000;52.056;8.510;2023-01-19T12:09:10;39.17;;;16.67;;
26277;SDS011;14000;52.056;8.510;2023-01-19T12:11:55;37.23;;;16.17;;
26277;SDS011;14000;52.056;8.510;2023-01-19T12:17:27;39.07;;;16.40;;
26277;SDS011;14000;52.056;8.510;2023-01-19T12:28:41;34.97;;;15.17;;
26277;SDS011;14000;52.056;8.510;2023-01-19T12:31:13;38.80;;;16.70;;
26277;SDS011;14000;52.056;8.510;2023-01-19T12:33:40;30.90;;;13.93;;
26277;SDS011;14000;52.056;8.510;2023-01-19T12:38:45;32.07;;;12.60;;
26277;SDS011;14000;52.056;8.510;2023-01-19T12:41:40;34.37;;;13.20;;
26277;SDS011;14000;52.056;8.510;2023-01-19T12:46:34;33.80;;;14.47;;
26277;SDS011;14000;52.056;8.510;2023-01-19T12:51:44;29.27;;;12.43;;
26277;SDS011;14000;52.056;8.510;2023-01-19T12:54:23;31.40;;;12.30;;
26277;SDS011;14000;52.056;8.510;2023-01-19T12:56:58;27.63;;;13.40;;
26277;SDS011;14000;52.056;8.510;2023-01-19T12:59:32;40.50;;;14.90;;
26277;SDS011;14000;52.056;8.510;2023-01-19T13:04:45;33.63;;;13.10;;
26277;SDS011;14000;52.056;8.510;2023-01-19T13:13:17;34.50;;;15.10;;
26277;SDS011;14000;52.056;8.510;2023-01-19T13:15:48;35.60;;;14.90;;
26277;SDS011;14000;52.056;8.510;2023-01-19T13:18:23;30.87;;;14.23;;
26277;SDS011;14000;52.056;8.510;2023-01-19T13:20:53;36.37;;;15.10;;
26277;SDS011;14000;52.056;8.510;2023-01-19T13:23:25;31.13;;;14.30;;
26277;SDS011;14000;52.056;8.510;2023-01-19T13:26:03;28.07;;;13.90;;
26277;SDS011;14000;52.056;8.510;2023-01-19T13:28:38;29.50;;;13.90;;
26277;SDS011;14000;52.056;8.510;2023-01-19T13:31:06;33.67;;;14.20;;
26277;SDS011;14000;52.056;8.510;2023-01-19T13:33:45;33.20;;;14.20;;
26277;SDS011;14000;52.056;8.510;2023-01-19T13:36:16;25.93;;;13.47;;
26277;SDS011;14000;52.056;8.510;2023-01-19T13:39:03;28.03;;;14.20;;
26277;SDS011;14000;52.056;8.510;2023-01-19T13:41:39;32.43;;;14.07;;
26277;SDS011;14000;52.056;8.510;2023-01-19T13:44:11;30.50;;;14.27;;
26277;SDS011;14000;52.056;8.510;2023-01-19T13:46:44;33.43;;;14.63;;
26277;SDS011;14000;52.056;8.510;2023-01-19T13:49:14;27.90;;;15.00;;
26277;SDS011;14000;52.056;8.510;2023-01-19T13:52:03;31.73;;;16.53;;
26277;SDS011;14000;52.056;8.510;2023-01-19T13:54:47;37.97;;;17.00;;
26277;SDS011;14000;52.056;8.510;2023-01-19T13:57:27;29.27;;;15.73;;
26277;SDS011;14000;52.056;8.510;2023-01-19T14:00:06;36.53;;;19.03;;
26277;SDS011;14000;52.056;8.510;2023-01-19T14:02:49;36.33;;;17.87;;
26277;SDS011;14000;52.056;8.510;2023-01-19T14:05:21;40.17;;;17.63;;
26277;SDS011;14000;52.056;8.510;2023-01-19T14:13:04;46.10;;;20.43;;
26277;SDS011;14000;52.056;8.510;2023-01-19T14:15:36;38.13;;;17.40;;
26277;SDS011;14000;52.056;8.510;2023-01-19T14:18:09;39.53;;;19.17;;
26277;SDS011;14000;52.056;8.510;2023-01-19T14:20:38;36.70;;;18.67;;
26277;SDS011;14000;52.056;8.510;2023-01-19T14:23:05;40.90;;;19.33;;
26277;SDS011;14000;52.056;8.510;2023-01-19T14:25:51;38.97;;;19.00;;
26277;SDS011;14000;52.056;8.510;2023-01-19T14:28:26;37.17;;;18.90;;
26277;SDS011;14000;52.056;8.510;2023-01-19T14:31:17;42.43;;;20.20;;
26277;SDS011;14000;52.056;8.510;2023-01-19T14:33:44;42.17;;;19.67;;
26277;SDS011;14000;52.056;8.510;2023-01-19T14:36:22;33.83;;;16.80;;
26277;SDS011;14000;52.056;8.510;2023-01-19T14:39:00;39.73;;;18.50;;
26277;SDS011;14000;52.056;8.510;2023-01-19T14:43:53;38.53;;;17.53;;
26277;SDS011;14000;52.056;8.510;2023-01-19T14:46:22;38.97;;;18.83;;
26277;SDS011;14000;52.056;8.510;2023-01-19T14:48:49;35.90;;;18.17;;
26277;SDS011;14000;52.056;8.510;2023-01-19T14:51:18;35.07;;;18.37;;
26277;SDS011;14000;52.056;8.510;2023-01-19T14:53:48;57.07;;;22.43;;
26277;SDS011;14000;52.056;8.510;2023-01-19T14:59:19;37.50;;;19.20;;
26277;SDS011;14000;52.056;8.510;2023-01-19T15:01:45;43.67;;;19.20;;
26277;SDS011;14000;52.056;8.510;2023-01-19T15:04:10;39.20;;;19.97;;
26277;SDS011;14000;52.056;8.510;2023-01-19T15:06:38;41.43;;;19.77;;
26277;SDS011;14000;52.056;8.510;2023-01-19T15:09:05;40.10;;;19.10;;
26277;SDS011;14000;52.056;8.510;2023-01-19T15:11:33;42.33;;;20.30;;
26277;SDS011;14000;52.056;8.510;2023-01-19T15:14:00;44.80;;;20.87;;
26277;SDS011;14000;52.056;8.510;2023-01-19T15:16:26;41.27;;;19.90;;
26277;SDS011;14000;52.056;8.510;2023-01-19T15:18:54;50.60;;;21.70;;
26277;SDS011;14000;52.056;8.510;2023-01-19T15:21:20;43.57;;;19.77;;
26277;SDS011;14000;52.056;8.510;2023-01-19T15:23:50;50.03;;;19.97;;
26277;SDS011;14000;52.056;8.510;2023-01-19T15:26:22;46.90;;;20.70;;
26277;SDS011;14000;52.056;8.510;2023-01-19T15:28:49;40.47;;;20.57;;
26277;SDS011;14000;52.056;8.510;2023-01-19T15:31:16;40.63;;;20.23;;
26277;SDS011;14000;52.056;8.510;2023-01-19T15:33:43;41.20;;;20.53;;
26277;SDS011;14000;52.056;8.510;2023-01-19T15:36:13;40.63;;;21.03;;
26277;SDS011;14000;52.056;8.510;2023-01-19T15:38:40;44.40;;;21.10;;
26277;SDS011;14000;52.056;8.510;2023-01-19T15:43:38;48.67;;;21.97;;
26277;SDS011;14000;52.056;8.510;2023-01-19T15:46:04;40.23;;;19.80;;
26277;SDS011;14000;52.056;8.510;2023-01-19T15:48:31;42.90;;;20.67;;
26277;SDS011;14000;52.056;8.510;2023-01-19T15:50:56;40.63;;;21.17;;
26277;SDS011;14000;52.056;8.510;2023-01-19T15:53:22;40.13;;;20.17;;
26277;SDS011;14000;52.056;8.510;2023-01-19T15:55:48;38.47;;;20.00;;
26277;SDS011;14000;52.056;8.510;2023-01-19T15:58:15;48.03;;;19.97;;